Amston, CT

9:03 PM EDT on July 30, 2015 (GMT -0400)
Amston | | Change Station
CLOSE
Current Station
Personal Weather Station
Location: Amston, CT
Elevation: 459 ft
Nearby Weather Stations

Elev 459 ft 41.64 °N, 72.36 °W | Updated 8 minutes ago

Overcast
Overcast
73.7 °F
Feels Like 71 °F
N
0.0
Wind Variable Wind from ENE
Gusts 1.0 mph

Today
High -- | Low -- °F
--% Chance of Precip.
Yesterday
High -- | Low -- °F
Precip. -- in
5:41 AM 8:09 PM
Full, 100% visible
Pressure 29.81 in
Visibility 10.0 miles
Clouds Few 900 ft
Scattered Clouds 6000 ft
Overcast 8500 ft
Heat Index 71 °F
Dew Point 71 °F
Humidity 92%
Rainfall 0.08 in
Snow Depth Not available.
UV 0 out of 12
Pollen 6.90 out of 12
Air Quality Not available.
Flu Activity Not available.
METAR KIJD 310052Z AUTO 19004KT 10SM FEW009 SCT060 OVC085 24/22 A2981 RMK AO2 RAB02E46 SLP094 P0001 T02390222

More Conditions Fewer Conditions

Pressure 29.81 in
Visibility 10.0 miles
Clouds Few 900 ft
Scattered Clouds 6000 ft
Overcast 8500 ft
Heat Index 71 °F
Dew Point 71 °F
Humidity 92%
Rainfall 0.08 in
Snow Depth Not available.
UV 0 out of 12
Pollen 6.90 out of 12
Air Quality Not available.
Flu Activity Not available.
METAR KIJD 310052Z AUTO 19004KT 10SM FEW009 SCT060 OVC085 24/22 A2981 RMK AO2 RAB02E46 SLP094 P0001 T02390222

More Conditions Fewer Conditions

10-Day Weather Forecast

×

Almanac

Astronomy

Jul. 30, 2015 Rise Set
Actual Time
Civil Twilight
Nautical Twilight
Astronomical Twilight
Moon
Length of Visible Light
Length of Day
Tomorrow will be .
, % of the Moon is Illuminated

Today's Extremes

State Highs State Lows

Community

WunderPhotos

Upload Photos

1,842,555 photos uploaded!

WunderBlogs® & News

Nearby

Air Quality

  Air Quality AQ Index Pollutant
Not available.

Snow Depth

Station Depth Elevation

Earthquake Activity

City Distance Mag. Time & Date
Minimum magnitude displayed is 2.5.

Coastal Water Temperatures

Place Temperature

Stations

Nearby Weather Stations

Station Location Temp. Windchill Dew Point Humidity Wind Precip. Elev Updated Type